createdAt,value
2022-09-03T00:02:15.640Z,54.03
2022-09-03T00:05:27.642Z,53.90
2022-09-03T00:08:40.731Z,54.23
2022-09-03T00:11:55.942Z,54.21
2022-09-03T00:15:08.716Z,54.18
2022-09-03T00:18:20.516Z,53.98
2022-09-03T00:21:38.169Z,53.90
2022-09-03T00:24:46.269Z,54.05
2022-09-03T00:27:58.997Z,54.28
2022-09-03T00:31:21.596Z,54.18
2022-09-03T00:34:35.780Z,54.62
2022-09-03T00:37:42.219Z,54.44
2022-09-03T00:41:07.056Z,54.60
2022-09-03T00:44:28.607Z,54.73
2022-09-03T00:47:44.830Z,54.57
2022-09-03T00:51:08.139Z,54.89
2022-09-03T00:54:24.122Z,54.84
2022-09-03T00:57:45.782Z,55.12
2022-09-03T01:00:55.710Z,55.24
2022-09-03T01:04:11.848Z,55.42
2022-09-03T01:07:34.441Z,55.23
2022-09-03T01:10:53.582Z,55.58
2022-09-03T01:14:06.705Z,55.69
2022-09-03T01:17:20.171Z,55.82
2022-09-03T01:20:41.186Z,55.63
2022-09-03T01:24:23.476Z,55.96
2022-09-03T01:27:42.227Z,55.99
2022-09-03T01:30:59.924Z,56.35
2022-09-03T01:34:19.329Z,56.50
2022-09-03T01:37:38.048Z,56.45
2022-09-03T01:40:56.784Z,56.81
2022-09-03T01:44:11.943Z,57.02
2022-09-03T01:47:33.035Z,57.15
2022-09-03T01:50:47.949Z,57.12
2022-09-03T01:54:06.710Z,57.54
2022-09-03T01:57:47.512Z,57.52
2022-09-03T02:00:59.675Z,57.16
2022-09-03T02:04:23.734Z,57.29
2022-09-03T02:07:35.093Z,57.26
2022-09-03T02:10:44.652Z,57.34
2022-09-03T02:13:55.303Z,57.22
2022-09-03T02:17:03.827Z,57.75
2022-09-03T02:20:20.264Z,57.45
2022-09-03T02:23:28.391Z,57.65
2022-09-03T02:26:35.009Z,58.03
2022-09-03T02:29:41.832Z,58.16
2022-09-03T02:32:47.930Z,58.21
2022-09-03T02:35:58.375Z,58.27
2022-09-03T02:39:04.673Z,58.61
2022-09-03T02:42:15.874Z,58.86
2022-09-03T02:45:30.141Z,58.63
2022-09-03T02:48:37.087Z,58.90
2022-09-03T02:51:47.286Z,58.80
2022-09-03T02:54:54.076Z,58.78
2022-09-03T02:58:00.669Z,58.99
2022-09-03T03:01:09.866Z,59.19
2022-09-03T03:04:15.820Z,59.14
2022-09-03T03:07:43.241Z,58.96
2022-09-03T03:10:49.572Z,59.22
2022-09-03T03:13:56.452Z,59.17
2022-09-03T03:17:04.136Z,59.39
2022-09-03T03:20:12.769Z,59.64
2022-09-03T03:23:21.540Z,59.63
2022-09-03T03:26:28.495Z,59.55
2022-09-03T03:29:34.356Z,59.62
2022-09-03T03:32:41.436Z,59.51
2022-09-03T03:35:48.131Z,59.54
2022-09-03T03:39:03.647Z,59.87
2022-09-03T03:42:09.958Z,59.88
2022-09-03T03:45:16.684Z,59.89
2022-09-03T03:48:22.646Z,60.08
2022-09-03T03:51:32.891Z,60.26
2022-09-03T03:54:41.652Z,60.10
2022-09-03T03:57:48.416Z,60.37
2022-09-03T04:00:55.204Z,60.30
2022-09-03T04:04:03.491Z,60.49
2022-09-03T04:07:10.672Z,60.68
2022-09-03T04:10:20.289Z,60.34
2022-09-03T04:13:27.618Z,60.53
2022-09-03T04:16:35.225Z,60.79
2022-09-03T04:19:41.317Z,61.29
2022-09-03T04:22:51.833Z,61.09
2022-09-03T04:26:00.861Z,60.79
2022-09-03T04:29:11.055Z,60.93
2022-09-03T04:32:32.916Z,61.36
2022-09-03T04:35:41.563Z,61.42
2022-09-03T04:38:49.742Z,61.65
2022-09-03T04:42:00.149Z,61.38
2022-09-03T04:45:08.726Z,61.81
2022-09-03T04:48:15.714Z,61.64
2022-09-03T04:51:23.796Z,61.65
2022-09-03T04:54:30.941Z,61.59
2022-09-03T04:57:43.233Z,61.44
2022-09-03T05:00:50.297Z,61.37
2022-09-03T05:03:56.230Z,61.73
2022-09-03T05:07:03.649Z,61.40
2022-09-03T05:10:13.252Z,61.80
2022-09-03T05:13:22.968Z,61.86
2022-09-03T05:16:30.512Z,61.75
2022-09-03T05:19:37.306Z,61.93
2022-09-03T05:22:43.477Z,62.08
2022-09-03T05:25:59.401Z,62.11
2022-09-03T05:29:10.383Z,62.09
2022-09-03T05:32:17.615Z,61.96
2022-09-03T05:35:26.040Z,62.26
2022-09-03T05:38:35.268Z,62.37
2022-09-03T05:41:41.441Z,62.00
2022-09-03T05:44:51.553Z,62.10
2022-09-03T05:47:57.422Z,62.08
2022-09-03T05:51:06.854Z,62.16
2022-09-03T05:54:13.370Z,62.39
2022-09-03T05:57:20.154Z,62.22
2022-09-03T06:00:28.849Z,62.19
2022-09-03T06:03:35.777Z,62.02
2022-09-03T06:06:43.330Z,61.91
2022-09-03T06:09:50.674Z,62.24
2022-09-03T06:13:04.152Z,62.25
2022-09-03T06:16:13.755Z,62.17
2022-09-03T06:19:20.556Z,61.81
2022-09-03T06:22:28.947Z,62.18
2022-09-03T06:25:35.244Z,62.15
2022-09-03T06:28:44.009Z,62.29
2022-09-03T06:31:52.978Z,62.05
2022-09-03T06:34:59.727Z,62.07
2022-09-03T06:38:07.892Z,62.31
2022-09-03T06:41:19.551Z,62.49
2022-09-03T06:44:25.487Z,62.62
2022-09-03T06:47:35.949Z,62.25
2022-09-03T06:50:41.825Z,62.56
2022-09-03T06:53:50.625Z,62.42
2022-09-03T06:56:56.528Z,62.76
2022-09-03T07:00:04.893Z,62.88
2022-09-03T07:03:13.538Z,62.58
2022-09-03T07:06:21.940Z,62.42
2022-09-03T07:09:27.927Z,62.36
2022-09-03T07:12:38.019Z,62.16
2022-09-03T07:15:44.474Z,62.20
2022-09-03T07:18:54.821Z,61.84
2022-09-03T07:22:01.058Z,61.92
2022-09-03T07:25:09.691Z,61.87
2022-09-03T07:28:17.184Z,61.55
2022-09-03T07:31:26.973Z,61.61
2022-09-03T07:34:35.980Z,61.80
2022-09-03T07:37:45.454Z,62.03
2022-09-03T07:40:52.824Z,61.88
2022-09-03T07:44:00.308Z,61.90
2022-09-03T07:47:08.341Z,61.72
2022-09-03T07:50:18.262Z,61.92
2022-09-03T07:53:25.396Z,62.21
2022-09-03T07:56:35.289Z,62.44
2022-09-03T07:59:41.251Z,62.24
2022-09-03T08:02:48.270Z,61.96
2022-09-03T08:05:57.621Z,61.34
2022-09-03T08:09:06.718Z,61.61
2022-09-03T08:12:12.625Z,61.50
2022-09-03T08:15:19.347Z,61.51
2022-09-03T08:18:26.063Z,61.60
2022-09-03T08:21:36.759Z,61.59
2022-09-03T08:24:42.843Z,61.09
2022-09-03T08:27:49.852Z,60.57
2022-09-03T08:30:56.013Z,60.47
2022-09-03T08:34:07.156Z,60.13
2022-09-03T08:37:16.093Z,59.98
2022-09-03T08:40:25.757Z,59.76
2022-09-03T08:43:32.345Z,59.69
2022-09-03T08:46:51.558Z,59.79
2022-09-03T08:50:03.557Z,59.25
2022-09-03T08:53:21.140Z,58.76
2022-09-03T08:56:30.009Z,58.87
2022-09-03T08:59:37.479Z,59.19
2022-09-03T09:02:55.812Z,58.80
2022-09-03T09:06:12.024Z,58.23
2022-09-03T09:09:30.033Z,58.92
2022-09-03T09:12:46.907Z,58.26
2022-09-03T09:16:07.216Z,57.39
2022-09-03T09:19:28.429Z,56.54
2022-09-03T09:22:38.569Z,57.47
2022-09-03T09:25:51.792Z,57.58
2022-09-03T09:29:03.728Z,58.00
2022-09-03T09:32:13.867Z,57.99
2022-09-03T09:35:21.329Z,58.17
2022-09-03T09:38:33.039Z,57.68
2022-09-03T09:41:41.818Z,58.32
2022-09-03T09:44:48.662Z,57.90
2022-09-03T09:47:59.903Z,57.61
2022-09-03T09:51:10.381Z,57.34
2022-09-03T09:54:20.444Z,57.17
2022-09-03T09:57:29.937Z,56.63
2022-09-03T10:00:37.995Z,56.39
2022-09-03T10:03:53.797Z,55.17
2022-09-03T10:07:11.367Z,55.35
2022-09-03T10:10:20.756Z,55.51
2022-09-03T10:13:38.240Z,55.29
2022-09-03T10:16:49.855Z,54.99
2022-09-03T10:20:19.753Z,54.50
2022-09-03T10:23:28.847Z,54.68
2022-09-03T10:26:35.067Z,54.72
2022-09-03T10:29:44.954Z,54.28
2022-09-03T10:33:06.643Z,54.61
2022-09-03T10:36:21.541Z,54.85
2022-09-03T10:39:43.627Z,54.42
2022-09-03T10:43:03.531Z,54.34
2022-09-03T10:46:14.582Z,54.26
2022-09-03T10:49:45.631Z,54.28
2022-09-03T10:53:09.567Z,53.89
2022-09-03T10:56:20.613Z,53.87
2022-09-03T10:59:46.472Z,53.80
2022-09-03T11:03:28.499Z,52.74
2022-09-03T11:06:51.970Z,53.05
2022-09-03T11:10:06.639Z,52.66
2022-09-03T11:13:17.678Z,52.35
2022-09-03T11:16:29.249Z,52.01
2022-09-03T11:19:46.337Z,51.51
2022-09-03T11:22:57.629Z,51.25
2022-09-03T11:26:09.013Z,51.47
2022-09-03T11:29:21.117Z,51.58
2022-09-03T11:32:36.219Z,51.90
2022-09-03T11:35:46.314Z,51.89
2022-09-03T11:38:52.271Z,51.76
2022-09-03T11:42:07.581Z,51.42
2022-09-03T11:45:26.021Z,51.33
2022-09-03T11:48:40.302Z,51.31
2022-09-03T11:52:03.527Z,50.96
2022-09-03T11:55:11.252Z,51.20
2022-09-03T11:58:27.376Z,50.56
2022-09-03T12:01:38.066Z,50.58
2022-09-03T12:04:52.760Z,50.11
2022-09-03T12:08:32.689Z,50.32
2022-09-03T12:11:51.735Z,50.76
2022-09-03T12:15:08.472Z,51.18
2022-09-03T12:18:24.884Z,50.86
2022-09-03T12:21:31.882Z,51.19
2022-09-03T12:24:44.238Z,50.95
2022-09-03T12:27:51.603Z,51.12
2022-09-03T12:30:58.559Z,51.33
2022-09-03T12:34:18.110Z,50.93
2022-09-03T12:44:30.296Z,50.65
2022-09-03T12:47:42.709Z,51.45
2022-09-03T12:50:56.523Z,51.15
2022-09-03T12:54:04.418Z,51.23
2022-09-03T12:57:13.397Z,51.35
2022-09-03T13:00:21.840Z,51.38
2022-09-03T13:03:34.703Z,50.91
2022-09-03T13:06:53.083Z,50.82
2022-09-03T13:10:08.361Z,51.33
2022-09-03T13:13:27.185Z,50.91
2022-09-03T13:16:59.306Z,50.37
2022-09-03T13:20:27.838Z,50.61
2022-09-03T13:24:10.559Z,50.61
2022-09-03T13:27:26.859Z,51.01
2022-09-03T13:30:41.786Z,50.06
2022-09-03T13:33:54.832Z,50.09
2022-09-03T13:37:10.334Z,50.11
2022-09-03T13:40:27.679Z,50.19
2022-09-03T13:43:38.188Z,50.27
2022-09-03T13:46:55.291Z,50.14
2022-09-03T13:50:23.715Z,50.11
2022-09-03T13:53:41.478Z,50.37
2022-09-03T13:57:00.503Z,50.77
2022-09-03T14:00:11.742Z,51.03
2022-09-03T14:03:35.154Z,50.84
2022-09-03T14:06:47.271Z,50.44
2022-09-03T14:10:03.559Z,50.68
2022-09-03T14:13:20.853Z,51.21
2022-09-03T14:16:34.399Z,50.52
2022-09-03T14:19:49.895Z,50.05
2022-09-03T14:23:03.545Z,50.24
2022-09-03T14:26:31.085Z,50.57
2022-09-03T14:29:54.581Z,51.20
2022-09-03T14:33:11.328Z,51.55
2022-09-03T14:36:30.475Z,51.41
2022-09-03T14:39:42.985Z,51.69
2022-09-03T14:43:18.883Z,50.81
2022-09-03T14:46:45.291Z,51.32
2022-09-03T14:50:15.521Z,51.39
2022-09-03T14:53:54.763Z,51.08
2022-09-03T14:57:14.261Z,51.30
2022-09-03T15:00:27.089Z,51.08
2022-09-03T15:03:50.757Z,51.02
2022-09-03T15:07:19.401Z,51.00
2022-09-03T15:10:40.364Z,50.81
2022-09-03T15:13:52.998Z,50.88
2022-09-03T15:17:04.142Z,50.95
2022-09-03T15:20:25.828Z,50.89
2022-09-03T15:23:57.270Z,50.72
2022-09-03T15:27:20.956Z,51.19
2022-09-03T15:30:26.975Z,51.29
2022-09-03T15:33:39.325Z,51.02
2022-09-03T15:36:49.612Z,51.16
2022-09-03T15:40:06.890Z,50.92
2022-09-03T15:43:27.665Z,51.10
2022-09-03T15:46:54.572Z,50.96
2022-09-03T15:50:08.442Z,51.28
2022-09-03T15:53:25.767Z,51.25
2022-09-03T15:56:38.297Z,51.43
2022-09-03T15:59:55.399Z,51.66
2022-09-03T16:03:11.564Z,51.54
2022-09-03T16:06:37.530Z,50.70
2022-09-03T16:10:22.795Z,49.72
2022-09-03T16:13:42.158Z,48.67
2022-09-03T16:17:00.972Z,48.06
2022-09-03T16:20:18.580Z,46.87
2022-09-03T16:23:31.712Z,47.42
2022-09-03T16:26:44.321Z,47.59
2022-09-03T16:30:00.950Z,48.22
2022-09-03T16:33:24.741Z,48.92
2022-09-03T16:36:41.533Z,49.67
2022-09-03T16:39:58.311Z,49.89
2022-09-03T16:43:36.827Z,50.58
2022-09-03T16:46:45.863Z,50.87
2022-09-03T16:50:08.428Z,51.50
2022-09-03T16:53:19.798Z,51.71
2022-09-03T16:56:41.554Z,52.01
2022-09-03T17:00:08.683Z,52.27
2022-09-03T17:03:38.127Z,52.49
2022-09-03T17:07:07.379Z,52.93
2022-09-03T17:10:25.247Z,53.37
2022-09-03T17:13:48.666Z,53.71
2022-09-03T17:17:08.906Z,54.38
2022-09-03T17:20:21.790Z,54.73
2022-09-03T17:24:03.773Z,55.29
2022-09-03T17:27:50.142Z,55.51
2022-09-03T17:31:00.923Z,55.78
2022-09-03T17:34:17.753Z,56.17
2022-09-03T17:37:38.253Z,56.58
2022-09-03T17:40:59.238Z,56.82
2022-09-03T17:44:16.920Z,56.79
2022-09-03T17:48:11.659Z,57.25
2022-09-03T17:51:29.832Z,57.32
2022-09-03T17:54:44.183Z,57.98
2022-09-03T17:57:57.251Z,58.21
2022-09-03T18:01:14.335Z,58.12
2022-09-03T18:04:42.914Z,58.65
2022-09-03T18:07:56.862Z,58.81
2022-09-03T18:11:13.450Z,58.99
2022-09-03T18:14:27.546Z,59.38
2022-09-03T18:17:41.140Z,59.51
2022-09-03T18:21:24.052Z,59.62
2022-09-03T18:24:52.917Z,60.00
2022-09-03T18:28:19.162Z,60.45
2022-09-03T18:31:43.725Z,60.50
2022-09-03T18:35:06.698Z,60.88
2022-09-03T18:38:28.260Z,61.08
2022-09-03T18:42:06.743Z,61.42
2022-09-03T18:46:20.016Z,61.55
2022-09-03T18:49:35.271Z,61.76
2022-09-03T18:53:07.898Z,61.97
2022-09-03T18:56:41.491Z,62.25
2022-09-03T19:00:19.051Z,62.46
2022-09-03T19:03:51.470Z,62.50
2022-09-03T19:07:24.369Z,62.84
2022-09-03T19:11:01.244Z,62.96
2022-09-03T19:14:32.683Z,63.16
2022-09-03T19:18:13.031Z,63.35
2022-09-03T19:21:46.611Z,63.49
2022-09-03T19:25:18.679Z,63.58
2022-09-03T19:28:42.176Z,63.95
2022-09-03T19:32:08.078Z,64.13
2022-09-03T19:35:37.136Z,64.29
2022-09-03T19:39:17.118Z,64.21
2022-09-03T19:42:50.442Z,64.57
2022-09-03T19:46:22.346Z,64.56
2022-09-03T19:49:56.853Z,64.74
2022-09-03T19:53:23.147Z,64.75
2022-09-03T19:56:47.591Z,64.98
2022-09-03T20:00:12.871Z,65.49
2022-09-03T20:03:40.165Z,65.28
2022-09-03T20:07:04.869Z,65.52
2022-09-03T20:10:23.309Z,65.69
2022-09-03T20:13:50.313Z,65.69
2022-09-03T20:17:15.284Z,66.11
2022-09-03T20:20:27.711Z,66.35
2022-09-03T20:23:38.990Z,66.27
2022-09-03T20:26:55.324Z,66.31
2022-09-03T20:30:06.846Z,66.52
2022-09-03T20:33:29.821Z,66.67
2022-09-03T20:36:49.766Z,66.90
2022-09-03T20:40:13.001Z,66.99
2022-09-03T20:43:41.665Z,67.03
2022-09-03T20:47:03.897Z,67.11
2022-09-03T20:50:24.851Z,67.32
2022-09-03T20:53:54.658Z,67.34
2022-09-03T20:57:21.379Z,67.38
2022-09-03T21:00:28.213Z,67.54
2022-09-03T21:03:38.632Z,67.81
2022-09-03T21:06:56.885Z,67.81
2022-09-03T21:10:08.499Z,67.84
2022-09-03T21:13:25.458Z,68.07
2022-09-03T21:16:41.426Z,68.32
2022-09-03T21:20:01.413Z,68.35
2022-09-03T21:23:20.842Z,68.49
2022-09-03T21:26:31.478Z,68.62
2022-09-03T21:29:43.776Z,68.47
2022-09-03T21:32:54.557Z,68.56
2022-09-03T21:36:09.943Z,68.57
2022-09-03T21:39:24.460Z,68.61
2022-09-03T21:42:36.738Z,68.62
2022-09-03T21:45:50.310Z,68.54
2022-09-03T21:49:01.299Z,68.61
2022-09-03T21:52:11.961Z,68.83
2022-09-03T21:55:31.606Z,68.68
2022-09-03T21:58:55.753Z,68.69
2022-09-03T22:02:09.609Z,68.81
2022-09-03T22:05:17.781Z,68.76
2022-09-03T22:08:29.504Z,68.68
2022-09-03T22:11:48.040Z,68.72
2022-09-03T22:14:56.868Z,68.70
2022-09-03T22:18:15.623Z,68.85
2022-09-03T22:21:26.029Z,68.68
2022-09-03T22:24:42.553Z,68.78
2022-09-03T22:28:03.623Z,68.74
2022-09-03T22:31:20.457Z,68.73
2022-09-03T22:34:50.988Z,68.75
2022-09-03T22:38:08.478Z,68.77
2022-09-03T22:41:30.583Z,68.46
2022-09-03T22:44:59.856Z,68.38
2022-09-03T22:48:17.839Z,68.47
2022-09-03T22:51:24.861Z,68.19
2022-09-03T22:54:55.357Z,68.18
2022-09-03T22:58:06.912Z,68.23
2022-09-03T23:01:21.349Z,68.16
2022-09-03T23:04:33.878Z,68.16
2022-09-03T23:07:52.944Z,68.19
2022-09-03T23:11:06.635Z,68.24
2022-09-03T23:14:15.462Z,68.22
2022-09-03T23:20:40.451Z,68.21
2022-09-03T23:23:54.262Z,68.24
2022-09-03T23:27:03.578Z,68.31
2022-09-03T23:30:11.446Z,68.20
2022-09-03T23:33:20.102Z,68.30
2022-09-03T23:40:26.420Z,68.45
2022-09-03T23:43:59.362Z,68.57
2022-09-03T23:47:19.967Z,68.60
2022-09-03T23:50:45.264Z,68.64
2022-09-03T23:54:07.555Z,68.75
2022-09-03T23:57:25.033Z,68.82
